sensor_id;sensor_type;location;lat;lon;timestamp;temperature;humidity
61807;DHT22;47726;52.766;6.606;2022-10-16T00:01:16;13.10;99.90
61807;DHT22;47726;52.766;6.606;2022-10-16T00:03:43;13.10;99.90
61807;DHT22;47726;52.766;6.606;2022-10-16T00:06:10;13.10;99.90
61807;DHT22;47726;52.766;6.606;2022-10-16T00:08:36;13.10;99.90
61807;DHT22;47726;52.766;6.606;2022-10-16T00:11:08;13.00;99.90
61807;DHT22;47726;52.766;6.606;2022-10-16T00:13:35;13.00;99.90
61807;DHT22;47726;52.766;6.606;2022-10-16T00:16:01;13.10;99.90
61807;DHT22;47726;52.766;6.606;2022-10-16T00:18:27;13.10;99.90
61807;DHT22;47726;52.766;6.606;2022-10-16T00:20:53;13.10;99.90
61807;DHT22;47726;52.766;6.606;2022-10-16T00:23:19;13.00;99.90
61807;DHT22;47726;52.766;6.606;2022-10-16T00:25:53;13.00;99.90
61807;DHT22;47726;52.766;6.606;2022-10-16T00:28:19;13.00;99.90
61807;DHT22;47726;52.766;6.606;2022-10-16T00:30:44;13.10;99.90
61807;DHT22;47726;52.766;6.606;2022-10-16T00:33:10;13.00;99.90
61807;DHT22;47726;52.766;6.606;2022-10-16T00:35:36;13.00;99.90
61807;DHT22;47726;52.766;6.606;2022-10-16T00:38:01;13.00;99.90
61807;DHT22;47726;52.766;6.606;2022-10-16T00:40:27;13.00;99.90
61807;DHT22;47726;52.766;6.606;2022-10-16T00:42:53;13.00;99.90
61807;DHT22;47726;52.766;6.606;2022-10-16T00:45:19;13.00;99.90
61807;DHT22;47726;52.766;6.606;2022-10-16T00:47:45;13.00;99.90
61807;DHT22;47726;52.766;6.606;2022-10-16T00:50:27;13.00;99.90
61807;DHT22;47726;52.766;6.606;2022-10-16T00:52:54;13.00;99.90
61807;DHT22;47726;52.766;6.606;2022-10-16T00:55:20;12.90;99.90
61807;DHT22;47726;52.766;6.606;2022-10-16T00:57:46;12.90;99.90
61807;DHT22;47726;52.766;6.606;2022-10-16T01:00:19;13.00;99.90
61807;DHT22;47726;52.766;6.606;2022-10-16T01:02:51;12.90;99.90
61807;DHT22;47726;52.766;6.606;2022-10-16T01:05:16;12.90;99.90
61807;DHT22;47726;52.766;6.606;2022-10-16T01:10:34;12.90;99.90
61807;DHT22;47726;52.766;6.606;2022-10-16T01:15:54;12.90;99.90
61807;DHT22;47726;52.766;6.606;2022-10-16T01:18:35;12.90;99.90
61807;DHT22;47726;52.766;6.606;2022-10-16T01:21:13;12.90;99.90
61807;DHT22;47726;52.766;6.606;2022-10-16T01:29:59;12.90;99.90
61807;DHT22;47726;52.766;6.606;2022-10-16T01:32:38;12.90;99.90
61807;DHT22;47726;52.766;6.606;2022-10-16T01:38:04;12.80;99.90
61807;DHT22;47726;52.766;6.606;2022-10-16T01:40:34;12.80;99.90
61807;DHT22;47726;52.766;6.606;2022-10-16T01:43:26;12.80;99.90
61807;DHT22;47726;52.766;6.606;2022-10-16T01:45:50;12.80;99.90
61807;DHT22;47726;52.766;6.606;2022-10-16T01:48:19;12.80;99.90
61807;DHT22;47726;52.766;6.606;2022-10-16T01:50:57;12.80;99.90
61807;DHT22;47726;52.766;6.606;2022-10-16T01:53:25;12.80;99.90
61807;DHT22;47726;52.766;6.606;2022-10-16T01:55:53;12.80;99.90
61807;DHT22;47726;52.766;6.606;2022-10-16T01:58:21;12.80;99.90
61807;DHT22;47726;52.766;6.606;2022-10-16T02:00:47;12.80;99.90
61807;DHT22;47726;52.766;6.606;2022-10-16T02:03:16;12.80;99.90
61807;DHT22;47726;52.766;6.606;2022-10-16T02:08:13;12.80;99.90
61807;DHT22;47726;52.766;6.606;2022-10-16T02:10:39;12.80;99.90
61807;DHT22;47726;52.766;6.606;2022-10-16T02:13:10;12.80;99.90
61807;DHT22;47726;52.766;6.606;2022-10-16T02:15:36;12.80;99.90
61807;DHT22;47726;52.766;6.606;2022-10-16T02:18:04;12.80;99.90
61807;DHT22;47726;52.766;6.606;2022-10-16T02:20:48;12.80;99.90
61807;DHT22;47726;52.766;6.606;2022-10-16T02:23:22;12.80;99.90
61807;DHT22;47726;52.766;6.606;2022-10-16T02:25:50;12.80;99.90
61807;DHT22;47726;52.766;6.606;2022-10-16T02:28:24;12.80;99.90
61807;DHT22;47726;52.766;6.606;2022-10-16T02:31:01;12.80;99.90
61807;DHT22;47726;52.766;6.606;2022-10-16T02:33:28;12.80;99.90
61807;DHT22;47726;52.766;6.606;2022-10-16T02:35:55;12.80;99.90
61807;DHT22;47726;52.766;6.606;2022-10-16T02:38:22;12.80;99.90
61807;DHT22;47726;52.766;6.606;2022-10-16T02:40:48;12.80;99.90
61807;DHT22;47726;52.766;6.606;2022-10-16T02:43:14;12.80;99.90
61807;DHT22;47726;52.766;6.606;2022-10-16T02:45:40;12.90;99.90
61807;DHT22;47726;52.766;6.606;2022-10-16T02:48:06;12.80;99.90
61807;DHT22;47726;52.766;6.606;2022-10-16T02:50:32;12.80;99.90
61807;DHT22;47726;52.766;6.606;2022-10-16T02:52:57;12.80;99.90
61807;DHT22;47726;52.766;6.606;2022-10-16T02:55:23;12.90;99.90
61807;DHT22;47726;52.766;6.606;2022-10-16T02:57:48;12.90;99.90
61807;DHT22;47726;52.766;6.606;2022-10-16T03:00:15;12.90;99.90
61807;DHT22;47726;52.766;6.606;2022-10-16T03:02:42;12.90;99.90
61807;DHT22;47726;52.766;6.606;2022-10-16T03:05:08;12.90;99.90
61807;DHT22;47726;52.766;6.606;2022-10-16T03:07:34;12.90;99.90
61807;DHT22;47726;52.766;6.606;2022-10-16T03:09:59;12.90;99.90
61807;DHT22;47726;52.766;6.606;2022-10-16T03:12:26;12.90;99.90
61807;DHT22;47726;52.766;6.606;2022-10-16T03:14:52;12.90;99.90
61807;DHT22;47726;52.766;6.606;2022-10-16T03:17:18;12.90;99.90
61807;DHT22;47726;52.766;6.606;2022-10-16T03:19:44;12.90;99.90
61807;DHT22;47726;52.766;6.606;2022-10-16T03:22:09;12.90;99.90
61807;DHT22;47726;52.766;6.606;2022-10-16T03:24:35;12.90;99.90
61807;DHT22;47726;52.766;6.606;2022-10-16T03:27:00;13.00;99.90
61807;DHT22;47726;52.766;6.606;2022-10-16T03:29:26;13.00;99.90
61807;DHT22;47726;52.766;6.606;2022-10-16T03:31:52;13.00;99.90
61807;DHT22;47726;52.766;6.606;2022-10-16T03:34:18;13.00;99.90
61807;DHT22;47726;52.766;6.606;2022-10-16T03:36:44;13.00;99.90
61807;DHT22;47726;52.766;6.606;2022-10-16T03:39:09;13.00;99.90
61807;DHT22;47726;52.766;6.606;2022-10-16T03:41:35;13.00;99.90
61807;DHT22;47726;52.766;6.606;2022-10-16T03:44:00;13.00;99.90
61807;DHT22;47726;52.766;6.606;2022-10-16T03:46:26;13.00;99.90
61807;DHT22;47726;52.766;6.606;2022-10-16T03:48:51;13.00;99.90
61807;DHT22;47726;52.766;6.606;2022-10-16T03:51:17;13.00;99.90
61807;DHT22;47726;52.766;6.606;2022-10-16T03:53:42;13.00;99.90
61807;DHT22;47726;52.766;6.606;2022-10-16T03:56:08;13.00;99.90
61807;DHT22;47726;52.766;6.606;2022-10-16T03:58:33;13.00;99.90
61807;DHT22;47726;52.766;6.606;2022-10-16T04:00:59;13.00;99.90
61807;DHT22;47726;52.766;6.606;2022-10-16T04:03:25;13.00;99.90
61807;DHT22;47726;52.766;6.606;2022-10-16T04:05:50;13.00;99.90
61807;DHT22;47726;52.766;6.606;2022-10-16T04:08:16;13.00;99.90
61807;DHT22;47726;52.766;6.606;2022-10-16T04:10:45;13.00;99.90
61807;DHT22;47726;52.766;6.606;2022-10-16T04:13:11;13.00;99.90
61807;DHT22;47726;52.766;6.606;2022-10-16T04:15:37;12.90;99.90
61807;DHT22;47726;52.766;6.606;2022-10-16T04:18:03;13.00;99.90
61807;DHT22;47726;52.766;6.606;2022-10-16T04:20:29;13.00;99.90
61807;DHT22;47726;52.766;6.606;2022-10-16T04:22:55;12.90;99.90
61807;DHT22;47726;52.766;6.606;2022-10-16T04:25:21;12.90;99.90
61807;DHT22;47726;52.766;6.606;2022-10-16T04:27:46;13.00;99.90
61807;DHT22;47726;52.766;6.606;2022-10-16T04:30:12;12.90;99.90
61807;DHT22;47726;52.766;6.606;2022-10-16T04:32:38;12.90;99.90
61807;DHT22;47726;52.766;6.606;2022-10-16T04:35:04;13.00;99.90
61807;DHT22;47726;52.766;6.606;2022-10-16T04:37:29;12.90;99.90
61807;DHT22;47726;52.766;6.606;2022-10-16T04:39:55;12.90;99.90
61807;DHT22;47726;52.766;6.606;2022-10-16T04:42:21;12.90;99.90
61807;DHT22;47726;52.766;6.606;2022-10-16T04:44:46;12.90;99.90
61807;DHT22;47726;52.766;6.606;2022-10-16T04:47:12;12.90;99.90
61807;DHT22;47726;52.766;6.606;2022-10-16T04:49:38;12.90;99.90
61807;DHT22;47726;52.766;6.606;2022-10-16T04:52:04;12.90;99.90
61807;DHT22;47726;52.766;6.606;2022-10-16T04:54:30;12.90;99.90
61807;DHT22;47726;52.766;6.606;2022-10-16T04:56:55;12.90;99.90
61807;DHT22;47726;52.766;6.606;2022-10-16T04:59:23;12.90;99.90
61807;DHT22;47726;52.766;6.606;2022-10-16T05:01:49;12.90;99.90
61807;DHT22;47726;52.766;6.606;2022-10-16T05:04:15;12.90;99.90
61807;DHT22;47726;52.766;6.606;2022-10-16T05:06:41;12.90;99.90
61807;DHT22;47726;52.766;6.606;2022-10-16T05:09:07;12.90;99.90
61807;DHT22;47726;52.766;6.606;2022-10-16T05:11:33;12.90;99.90
61807;DHT22;47726;52.766;6.606;2022-10-16T05:13:59;12.90;99.90
61807;DHT22;47726;52.766;6.606;2022-10-16T05:16:25;12.90;99.90
61807;DHT22;47726;52.766;6.606;2022-10-16T05:18:51;12.90;99.90
61807;DHT22;47726;52.766;6.606;2022-10-16T05:21:17;12.90;99.90
61807;DHT22;47726;52.766;6.606;2022-10-16T05:23:42;12.90;99.90
61807;DHT22;47726;52.766;6.606;2022-10-16T05:26:08;12.90;99.90
61807;DHT22;47726;52.766;6.606;2022-10-16T05:28:33;12.90;99.90
61807;DHT22;47726;52.766;6.606;2022-10-16T05:30:59;12.90;99.90
61807;DHT22;47726;52.766;6.606;2022-10-16T05:33:28;12.90;99.90
61807;DHT22;47726;52.766;6.606;2022-10-16T05:35:54;12.90;99.90
61807;DHT22;47726;52.766;6.606;2022-10-16T05:38:20;12.90;99.90
61807;DHT22;47726;52.766;6.606;2022-10-16T05:40:51;12.90;99.90
61807;DHT22;47726;52.766;6.606;2022-10-16T05:43:17;12.90;99.90
61807;DHT22;47726;52.766;6.606;2022-10-16T05:45:43;12.90;99.90
61807;DHT22;47726;52.766;6.606;2022-10-16T05:48:08;12.80;99.90
61807;DHT22;47726;52.766;6.606;2022-10-16T05:50:34;12.80;99.90
61807;DHT22;47726;52.766;6.606;2022-10-16T05:52:59;12.80;99.90
61807;DHT22;47726;52.766;6.606;2022-10-16T05:55:25;12.80;99.90
61807;DHT22;47726;52.766;6.606;2022-10-16T05:57:53;12.80;99.90
61807;DHT22;47726;52.766;6.606;2022-10-16T06:00:19;12.80;99.90
61807;DHT22;47726;52.766;6.606;2022-10-16T06:02:44;12.80;99.90
61807;DHT22;47726;52.766;6.606;2022-10-16T06:05:10;12.80;99.90
61807;DHT22;47726;52.766;6.606;2022-10-16T06:07:35;12.80;99.90
61807;DHT22;47726;52.766;6.606;2022-10-16T06:10:02;12.80;99.90
61807;DHT22;47726;52.766;6.606;2022-10-16T06:12:28;12.80;99.90
61807;DHT22;47726;52.766;6.606;2022-10-16T06:14:53;12.80;99.90
61807;DHT22;47726;52.766;6.606;2022-10-16T06:17:19;12.80;99.90
61807;DHT22;47726;52.766;6.606;2022-10-16T06:19:45;12.80;99.90
61807;DHT22;47726;52.766;6.606;2022-10-16T06:22:10;12.80;99.90
61807;DHT22;47726;52.766;6.606;2022-10-16T06:24:36;12.80;99.90
61807;DHT22;47726;52.766;6.606;2022-10-16T06:27:03;12.80;99.90
61807;DHT22;47726;52.766;6.606;2022-10-16T06:29:29;12.80;99.90
61807;DHT22;47726;52.766;6.606;2022-10-16T06:31:54;12.80;99.90
61807;DHT22;47726;52.766;6.606;2022-10-16T06:34:20;12.80;99.90
61807;DHT22;47726;52.766;6.606;2022-10-16T06:36:46;12.80;99.90
61807;DHT22;47726;52.766;6.606;2022-10-16T06:39:11;12.80;99.90
61807;DHT22;47726;52.766;6.606;2022-10-16T06:41:37;12.80;99.90
61807;DHT22;47726;52.766;6.606;2022-10-16T06:44:06;12.80;99.90
61807;DHT22;47726;52.766;6.606;2022-10-16T06:46:33;12.80;99.90
61807;DHT22;47726;52.766;6.606;2022-10-16T06:48:58;12.90;99.90
61807;DHT22;47726;52.766;6.606;2022-10-16T06:51:24;12.80;99.90
61807;DHT22;47726;52.766;6.606;2022-10-16T06:53:54;12.90;99.90
61807;DHT22;47726;52.766;6.606;2022-10-16T06:56:24;12.90;99.90
61807;DHT22;47726;52.766;6.606;2022-10-16T06:58:51;12.90;99.90
61807;DHT22;47726;52.766;6.606;2022-10-16T07:01:20;12.90;99.90
61807;DHT22;47726;52.766;6.606;2022-10-16T07:03:46;12.90;99.90
61807;DHT22;47726;52.766;6.606;2022-10-16T07:06:15;13.00;99.90
61807;DHT22;47726;52.766;6.606;2022-10-16T07:08:43;13.00;99.90
61807;DHT22;47726;52.766;6.606;2022-10-16T07:11:12;13.00;99.90
61807;DHT22;47726;52.766;6.606;2022-10-16T07:13:39;13.00;99.90
61807;DHT22;47726;52.766;6.606;2022-10-16T07:16:07;13.00;99.90
61807;DHT22;47726;52.766;6.606;2022-10-16T07:18:33;13.00;99.90
61807;DHT22;47726;52.766;6.606;2022-10-16T07:21:10;13.10;99.90
61807;DHT22;47726;52.766;6.606;2022-10-16T07:23:36;13.10;99.90
61807;DHT22;47726;52.766;6.606;2022-10-16T07:26:03;13.10;99.90
61807;DHT22;47726;52.766;6.606;2022-10-16T07:28:29;13.10;99.90
61807;DHT22;47726;52.766;6.606;2022-10-16T07:30:55;13.20;99.90
61807;DHT22;47726;52.766;6.606;2022-10-16T07:33:21;13.20;99.90
61807;DHT22;47726;52.766;6.606;2022-10-16T07:35:53;13.30;99.90
61807;DHT22;47726;52.766;6.606;2022-10-16T07:38:20;13.30;99.90
61807;DHT22;47726;52.766;6.606;2022-10-16T07:40:46;13.40;99.90
61807;DHT22;47726;52.766;6.606;2022-10-16T07:43:12;13.40;99.90
61807;DHT22;47726;52.766;6.606;2022-10-16T07:45:49;13.50;99.90
61807;DHT22;47726;52.766;6.606;2022-10-16T07:48:16;13.50;99.90
61807;DHT22;47726;52.766;6.606;2022-10-16T07:50:42;13.50;99.90
61807;DHT22;47726;52.766;6.606;2022-10-16T07:53:08;13.50;99.90
61807;DHT22;47726;52.766;6.606;2022-10-16T07:55:33;13.60;99.90
61807;DHT22;47726;52.766;6.606;2022-10-16T07:57:59;13.60;99.90
61807;DHT22;47726;52.766;6.606;2022-10-16T08:00:24;13.50;99.90
61807;DHT22;47726;52.766;6.606;2022-10-16T08:02:50;13.60;99.90
61807;DHT22;47726;52.766;6.606;2022-10-16T08:05:16;13.60;99.90
61807;DHT22;47726;52.766;6.606;2022-10-16T08:07:41;13.60;99.90
61807;DHT22;47726;52.766;6.606;2022-10-16T08:10:15;13.60;99.90
61807;DHT22;47726;52.766;6.606;2022-10-16T08:12:42;13.70;99.90
61807;DHT22;47726;52.766;6.606;2022-10-16T08:15:08;13.70;99.90
61807;DHT22;47726;52.766;6.606;2022-10-16T08:17:33;13.80;99.90
61807;DHT22;47726;52.766;6.606;2022-10-16T08:19:59;13.80;99.90
61807;DHT22;47726;52.766;6.606;2022-10-16T08:22:25;13.90;99.90
61807;DHT22;47726;52.766;6.606;2022-10-16T08:24:50;13.90;99.90
61807;DHT22;47726;52.766;6.606;2022-10-16T08:27:16;14.00;99.90
61807;DHT22;47726;52.766;6.606;2022-10-16T08:29:41;14.00;99.90
61807;DHT22;47726;52.766;6.606;2022-10-16T08:32:07;14.00;99.90
61807;DHT22;47726;52.766;6.606;2022-10-16T08:34:33;14.10;99.90
61807;DHT22;47726;52.766;6.606;2022-10-16T08:36:58;14.10;99.90
61807;DHT22;47726;52.766;6.606;2022-10-16T08:39:24;14.30;99.90
61807;DHT22;47726;52.766;6.606;2022-10-16T08:42:13;14.50;99.90
61807;DHT22;47726;52.766;6.606;2022-10-16T08:44:56;14.70;99.90
61807;DHT22;47726;52.766;6.606;2022-10-16T08:48:03;14.90;99.90
61807;DHT22;47726;52.766;6.606;2022-10-16T08:50:32;15.00;99.90
61807;DHT22;47726;52.766;6.606;2022-10-16T08:53:04;15.20;99.90
61807;DHT22;47726;52.766;6.606;2022-10-16T08:55:42;15.40;99.90
61807;DHT22;47726;52.766;6.606;2022-10-16T08:58:15;15.60;99.90
61807;DHT22;47726;52.766;6.606;2022-10-16T09:00:43;15.90;99.90
61807;DHT22;47726;52.766;6.606;2022-10-16T09:03:21;16.30;99.90
61807;DHT22;47726;52.766;6.606;2022-10-16T09:14:00;17.80;99.90
61807;DHT22;47726;52.766;6.606;2022-10-16T09:16:36;18.10;99.90
61807;DHT22;47726;52.766;6.606;2022-10-16T09:19:22;18.30;99.90
61807;DHT22;47726;52.766;6.606;2022-10-16T09:21:49;18.50;99.90
61807;DHT22;47726;52.766;6.606;2022-10-16T09:24:22;18.60;99.90
61807;DHT22;47726;52.766;6.606;2022-10-16T09:26:49;18.60;99.90
61807;DHT22;47726;52.766;6.606;2022-10-16T09:29:17;18.50;99.90
61807;DHT22;47726;52.766;6.606;2022-10-16T09:31:45;18.50;99.90
61807;DHT22;47726;52.766;6.606;2022-10-16T09:34:30;18.40;99.90
61807;DHT22;47726;52.766;6.606;2022-10-16T09:36:59;18.30;99.90
61807;DHT22;47726;52.766;6.606;2022-10-16T09:39:26;18.20;99.90
61807;DHT22;47726;52.766;6.606;2022-10-16T09:41:51;18.10;99.90
61807;DHT22;47726;52.766;6.606;2022-10-16T09:46:47;18.10;99.90
61807;DHT22;47726;52.766;6.606;2022-10-16T09:49:24;18.00;99.90
61807;DHT22;47726;52.766;6.606;2022-10-16T09:51:51;18.00;99.90
61807;DHT22;47726;52.766;6.606;2022-10-16T09:54:19;17.90;99.90
61807;DHT22;47726;52.766;6.606;2022-10-16T09:56:45;17.90;99.90
61807;DHT22;47726;52.766;6.606;2022-10-16T09:59:16;17.80;99.90
61807;DHT22;47726;52.766;6.606;2022-10-16T10:01:51;17.70;99.90
61807;DHT22;47726;52.766;6.606;2022-10-16T10:04:18;17.60;99.90
61807;DHT22;47726;52.766;6.606;2022-10-16T10:06:47;17.50;99.90
61807;DHT22;47726;52.766;6.606;2022-10-16T10:09:21;17.40;99.90
61807;DHT22;47726;52.766;6.606;2022-10-16T10:11:54;17.30;99.90
61807;DHT22;47726;52.766;6.606;2022-10-16T10:16:53;17.10;99.90
61807;DHT22;47726;52.766;6.606;2022-10-16T10:19:27;17.10;99.90
61807;DHT22;47726;52.766;6.606;2022-10-16T10:21:53;17.20;99.90
61807;DHT22;47726;52.766;6.606;2022-10-16T10:24:19;17.20;99.90
61807;DHT22;47726;52.766;6.606;2022-10-16T10:27:09;17.30;99.90
61807;DHT22;47726;52.766;6.606;2022-10-16T10:30:15;17.30;99.90
61807;DHT22;47726;52.766;6.606;2022-10-16T10:32:52;17.40;99.90
61807;DHT22;47726;52.766;6.606;2022-10-16T10:35:25;17.40;99.90
61807;DHT22;47726;52.766;6.606;2022-10-16T10:43:21;17.90;99.90
61807;DHT22;47726;52.766;6.606;2022-10-16T10:45:54;18.20;99.90
61807;DHT22;47726;52.766;6.606;2022-10-16T10:51:40;18.10;99.90
61807;DHT22;47726;52.766;6.606;2022-10-16T10:54:17;18.10;99.90
61807;DHT22;47726;52.766;6.606;2022-10-16T10:57:02;18.10;99.90
61807;DHT22;47726;52.766;6.606;2022-10-16T11:02:36;17.90;99.90
61807;DHT22;47726;52.766;6.606;2022-10-16T11:08:31;17.80;99.90
61807;DHT22;47726;52.766;6.606;2022-10-16T11:10:51;17.60;99.90
61807;DHT22;47726;52.766;6.606;2022-10-16T11:13:32;17.60;99.90
61807;DHT22;47726;52.766;6.606;2022-10-16T11:16:02;17.60;99.90
61807;DHT22;47726;52.766;6.606;2022-10-16T11:21:14;17.80;99.90
61807;DHT22;47726;52.766;6.606;2022-10-16T11:23:49;17.90;99.90
61807;DHT22;47726;52.766;6.606;2022-10-16T11:26:21;17.90;99.90
61807;DHT22;47726;52.766;6.606;2022-10-16T11:28:50;18.00;99.90
61807;DHT22;47726;52.766;6.606;2022-10-16T11:31:40;18.10;99.90
61807;DHT22;47726;52.766;6.606;2022-10-16T11:34:31;18.10;99.90
61807;DHT22;47726;52.766;6.606;2022-10-16T11:37:03;18.20;99.90
61807;DHT22;47726;52.766;6.606;2022-10-16T11:39:31;18.30;99.90
61807;DHT22;47726;52.766;6.606;2022-10-16T11:42:05;18.30;99.90
61807;DHT22;47726;52.766;6.606;2022-10-16T11:47:42;18.20;99.90
61807;DHT22;47726;52.766;6.606;2022-10-16T11:53:30;18.30;99.90
61807;DHT22;47726;52.766;6.606;2022-10-16T11:55:59;18.40;99.90
61807;DHT22;47726;52.766;6.606;2022-10-16T12:01:14;18.50;99.90
61807;DHT22;47726;52.766;6.606;2022-10-16T12:04:02;18.40;99.90
61807;DHT22;47726;52.766;6.606;2022-10-16T12:09:29;18.40;99.90
61807;DHT22;47726;52.766;6.606;2022-10-16T12:11:55;18.40;99.90
61807;DHT22;47726;52.766;6.606;2022-10-16T12:17:01;18.30;99.90
61807;DHT22;47726;52.766;6.606;2022-10-16T12:19:29;18.30;99.90
61807;DHT22;47726;52.766;6.606;2022-10-16T12:22:00;18.20;99.90
61807;DHT22;47726;52.766;6.606;2022-10-16T12:24:41;18.20;99.90
61807;DHT22;47726;52.766;6.606;2022-10-16T12:27:29;18.10;99.90
61807;DHT22;47726;52.766;6.606;2022-10-16T12:30:00;18.10;99.90
61807;DHT22;47726;52.766;6.606;2022-10-16T12:32:37;18.10;99.90
61807;DHT22;47726;52.766;6.606;2022-10-16T12:35:21;18.10;99.90
61807;DHT22;47726;52.766;6.606;2022-10-16T12:37:48;18.10;99.90
61807;DHT22;47726;52.766;6.606;2022-10-16T12:40:30;18.20;99.90
61807;DHT22;47726;52.766;6.606;2022-10-16T12:42:56;18.20;99.90
61807;DHT22;47726;52.766;6.606;2022-10-16T12:45:33;18.30;99.90
61807;DHT22;47726;52.766;6.606;2022-10-16T12:48:01;18.20;99.90
61807;DHT22;47726;52.766;6.606;2022-10-16T12:50:34;18.20;99.90
61807;DHT22;47726;52.766;6.606;2022-10-16T12:53:02;18.10;99.90
61807;DHT22;47726;52.766;6.606;2022-10-16T12:55:35;18.10;99.90
61807;DHT22;47726;52.766;6.606;2022-10-16T13:11:45;17.90;99.90
61807;DHT22;47726;52.766;6.606;2022-10-16T13:19:49;18.00;99.90
61807;DHT22;47726;52.766;6.606;2022-10-16T13:28:06;18.00;99.90
61807;DHT22;47726;52.766;6.606;2022-10-16T13:30:43;18.00;99.90
61807;DHT22;47726;52.766;6.606;2022-10-16T13:35:35;18.10;99.90
61807;DHT22;47726;52.766;6.606;2022-10-16T13:38:16;18.10;99.90
61807;DHT22;47726;52.766;6.606;2022-10-16T13:40:52;18.10;99.90
61807;DHT22;47726;52.766;6.606;2022-10-16T13:43:21;18.10;99.70
61807;DHT22;47726;52.766;6.606;2022-10-16T13:45:58;18.00;99.90
61807;DHT22;47726;52.766;6.606;2022-10-16T13:48:25;18.10;99.90
61807;DHT22;47726;52.766;6.606;2022-10-16T13:53:36;18.00;99.90
61807;DHT22;47726;52.766;6.606;2022-10-16T13:56:04;18.00;99.90
61807;DHT22;47726;52.766;6.606;2022-10-16T13:58:30;18.00;99.90
61807;DHT22;47726;52.766;6.606;2022-10-16T14:01:01;18.00;99.90
61807;DHT22;47726;52.766;6.606;2022-10-16T14:03:28;17.90;99.90
61807;DHT22;47726;52.766;6.606;2022-10-16T14:06:00;18.00;99.90
61807;DHT22;47726;52.766;6.606;2022-10-16T14:08:28;18.00;99.90
61807;DHT22;47726;52.766;6.606;2022-10-16T14:10:56;18.00;99.90
61807;DHT22;47726;52.766;6.606;2022-10-16T14:13:37;18.00;99.90
61807;DHT22;47726;52.766;6.606;2022-10-16T14:16:15;17.90;99.90
61807;DHT22;47726;52.766;6.606;2022-10-16T14:19:01;17.90;99.90
61807;DHT22;47726;52.766;6.606;2022-10-16T14:21:28;17.90;99.90
61807;DHT22;47726;52.766;6.606;2022-10-16T14:23:54;17.90;99.90
61807;DHT22;47726;52.766;6.606;2022-10-16T14:26:22;17.90;99.90
61807;DHT22;47726;52.766;6.606;2022-10-16T14:29:09;17.90;99.90
61807;DHT22;47726;52.766;6.606;2022-10-16T14:31:36;17.80;99.90
61807;DHT22;47726;52.766;6.606;2022-10-16T14:34:03;17.80;99.90
61807;DHT22;47726;52.766;6.606;2022-10-16T14:36:29;17.80;99.90
61807;DHT22;47726;52.766;6.606;2022-10-16T14:39:05;17.70;99.90
61807;DHT22;47726;52.766;6.606;2022-10-16T14:41:33;17.70;99.90
61807;DHT22;47726;52.766;6.606;2022-10-16T14:44:06;17.70;99.90
61807;DHT22;47726;52.766;6.606;2022-10-16T14:46:35;17.70;99.90
61807;DHT22;47726;52.766;6.606;2022-10-16T14:51:41;17.60;99.90
61807;DHT22;47726;52.766;6.606;2022-10-16T14:54:12;17.60;99.90
61807;DHT22;47726;52.766;6.606;2022-10-16T14:56:55;17.60;99.90
61807;DHT22;47726;52.766;6.606;2022-10-16T14:59:40;17.60;99.90
61807;DHT22;47726;52.766;6.606;2022-10-16T15:04:48;17.60;99.90
61807;DHT22;47726;52.766;6.606;2022-10-16T15:07:14;17.50;99.90
61807;DHT22;47726;52.766;6.606;2022-10-16T15:09:40;17.50;99.90
61807;DHT22;47726;52.766;6.606;2022-10-16T15:12:05;17.50;99.90
61807;DHT22;47726;52.766;6.606;2022-10-16T15:14:31;17.50;99.90
61807;DHT22;47726;52.766;6.606;2022-10-16T15:16:57;17.50;99.90
61807;DHT22;47726;52.766;6.606;2022-10-16T15:19:22;17.40;99.90
61807;DHT22;47726;52.766;6.606;2022-10-16T15:21:48;17.40;99.90
61807;DHT22;47726;52.766;6.606;2022-10-16T15:24:14;17.40;99.90
61807;DHT22;47726;52.766;6.606;2022-10-16T15:26:40;17.40;99.90
61807;DHT22;47726;52.766;6.606;2022-10-16T15:29:06;17.40;99.90
61807;DHT22;47726;52.766;6.606;2022-10-16T15:31:32;17.40;99.90
61807;DHT22;47726;52.766;6.606;2022-10-16T15:33:58;17.30;99.90
61807;DHT22;47726;52.766;6.606;2022-10-16T15:36:33;17.30;99.90
61807;DHT22;47726;52.766;6.606;2022-10-16T15:39:14;17.30;99.90
61807;DHT22;47726;52.766;6.606;2022-10-16T15:41:40;17.30;99.90
61807;DHT22;47726;52.766;6.606;2022-10-16T15:44:06;17.20;99.90
61807;DHT22;47726;52.766;6.606;2022-10-16T15:46:32;17.20;99.90
61807;DHT22;47726;52.766;6.606;2022-10-16T15:48:59;17.10;99.90
61807;DHT22;47726;52.766;6.606;2022-10-16T15:51:26;17.10;99.90
61807;DHT22;47726;52.766;6.606;2022-10-16T15:53:57;17.10;99.90
61807;DHT22;47726;52.766;6.606;2022-10-16T15:56:24;17.10;99.90
61807;DHT22;47726;52.766;6.606;2022-10-16T15:58:51;17.00;99.90
61807;DHT22;47726;52.766;6.606;2022-10-16T16:01:17;17.00;99.90
61807;DHT22;47726;52.766;6.606;2022-10-16T16:03:43;17.00;99.90
61807;DHT22;47726;52.766;6.606;2022-10-16T16:06:11;16.90;99.90
61807;DHT22;47726;52.766;6.606;2022-10-16T16:08:38;16.90;99.90
61807;DHT22;47726;52.766;6.606;2022-10-16T16:11:09;16.80;99.90
61807;DHT22;47726;52.766;6.606;2022-10-16T16:13:36;16.80;99.90
61807;DHT22;47726;52.766;6.606;2022-10-16T16:16:10;16.70;99.90
61807;DHT22;47726;52.766;6.606;2022-10-16T16:18:36;16.70;99.90
61807;DHT22;47726;52.766;6.606;2022-10-16T16:21:02;16.60;99.90
61807;DHT22;47726;52.766;6.606;2022-10-16T16:23:28;16.60;99.90
61807;DHT22;47726;52.766;6.606;2022-10-16T16:26:14;16.60;99.90
61807;DHT22;47726;52.766;6.606;2022-10-16T16:28:41;16.50;99.90
61807;DHT22;47726;52.766;6.606;2022-10-16T16:31:07;16.40;99.90
61807;DHT22;47726;52.766;6.606;2022-10-16T16:33:33;16.30;99.90
61807;DHT22;47726;52.766;6.606;2022-10-16T16:36:01;16.30;99.90
61807;DHT22;47726;52.766;6.606;2022-10-16T16:38:28;16.30;99.90
61807;DHT22;47726;52.766;6.606;2022-10-16T16:40:54;16.20;99.90
61807;DHT22;47726;52.766;6.606;2022-10-16T16:43:23;16.10;99.90
61807;DHT22;47726;52.766;6.606;2022-10-16T16:45:49;16.10;99.90
61807;DHT22;47726;52.766;6.606;2022-10-16T16:48:15;16.10;99.90
61807;DHT22;47726;52.766;6.606;2022-10-16T16:50:41;16.00;99.90
61807;DHT22;47726;52.766;6.606;2022-10-16T16:53:06;15.90;99.90
61807;DHT22;47726;52.766;6.606;2022-10-16T16:55:33;15.90;99.90
61807;DHT22;47726;52.766;6.606;2022-10-16T16:57:58;15.90;99.90
61807;DHT22;47726;52.766;6.606;2022-10-16T17:00:24;15.80;99.90
61807;DHT22;47726;52.766;6.606;2022-10-16T17:02:50;15.70;99.90
61807;DHT22;47726;52.766;6.606;2022-10-16T17:05:16;15.70;99.90
61807;DHT22;47726;52.766;6.606;2022-10-16T17:07:42;15.60;99.90
61807;DHT22;47726;52.766;6.606;2022-10-16T17:10:09;15.60;99.90
61807;DHT22;47726;52.766;6.606;2022-10-16T17:12:35;15.50;99.90
61807;DHT22;47726;52.766;6.606;2022-10-16T17:15:01;15.50;99.90
61807;DHT22;47726;52.766;6.606;2022-10-16T17:17:27;15.40;99.90
61807;DHT22;47726;52.766;6.606;2022-10-16T17:19:52;15.40;99.90